createdAt,value
2022-10-02T00:02:41.765Z,2.47
2022-10-02T00:05:35.232Z,6.87
2022-10-02T00:08:25.966Z,6.03
2022-10-02T00:11:19.360Z,1.77
2022-10-02T00:14:12.952Z,4.23
2022-10-02T00:17:01.791Z,3.93
2022-10-02T00:19:48.439Z,3.17
2022-10-02T00:22:42.312Z,8.40
2022-10-02T00:25:34.676Z,3.87
2022-10-02T00:28:27.522Z,7.47
2022-10-02T00:31:29.570Z,4.30
2022-10-02T00:34:27.104Z,5.83
2022-10-02T00:37:20.851Z,6.80
2022-10-02T00:40:34.327Z,4.33
2022-10-02T00:43:28.711Z,5.17
2022-10-02T00:46:29.580Z,7.23
2022-10-02T00:49:41.111Z,6.37
2022-10-02T00:52:41.326Z,8.13
2022-10-02T00:55:38.649Z,7.90
2022-10-02T00:58:54.696Z,8.10
2022-10-02T01:01:47.484Z,8.77
2022-10-02T01:04:36.564Z,5.83
2022-10-02T01:07:23.143Z,7.70
2022-10-02T01:10:11.464Z,6.03
2022-10-02T01:12:59.035Z,9.87
2022-10-02T01:15:50.898Z,10.17
2022-10-02T01:18:39.522Z,10.73
2022-10-02T01:21:33.640Z,7.80
2022-10-02T01:24:25.524Z,5.70
2022-10-02T01:27:13.726Z,8.27
2022-10-02T01:30:04.166Z,8.57
2022-10-02T01:32:54.176Z,14.93
2022-10-02T01:35:41.748Z,9.90
2022-10-02T01:38:29.509Z,8.23
2022-10-02T01:41:16.172Z,8.53
2022-10-02T01:44:04.272Z,14.10
2022-10-02T01:47:00.522Z,14.23
2022-10-02T01:50:01.950Z,12.07
2022-10-02T01:52:56.112Z,12.33
2022-10-02T01:55:51.979Z,12.50
2022-10-02T01:58:49.960Z,8.80
2022-10-02T02:01:45.530Z,9.57
2022-10-02T02:04:41.685Z,12.70
2022-10-02T02:07:41.591Z,12.10
2022-10-02T02:10:39.254Z,13.60
2022-10-02T02:13:32.220Z,13.17
2022-10-02T02:16:26.192Z,15.43
2022-10-02T02:19:21.296Z,15.50
2022-10-02T02:22:17.167Z,14.67
2022-10-02T02:25:08.822Z,13.37
2022-10-02T02:27:59.801Z,13.10
2022-10-02T02:30:50.390Z,13.23
2022-10-02T02:33:42.959Z,14.03
2022-10-02T02:36:37.645Z,10.60
2022-10-02T02:39:31.978Z,12.40
2022-10-02T02:42:26.075Z,10.63
2022-10-02T02:45:18.261Z,17.17
2022-10-02T02:48:10.034Z,15.90
2022-10-02T02:51:00.765Z,17.70
2022-10-02T02:53:53.020Z,11.00
2022-10-02T02:56:42.248Z,19.10
2022-10-02T02:59:32.363Z,13.50
2022-10-02T03:02:19.197Z,10.57
2022-10-02T03:05:12.695Z,16.57
2022-10-02T03:08:02.727Z,12.03
2022-10-02T03:11:03.460Z,20.27
2022-10-02T03:13:58.924Z,16.83
2022-10-02T03:16:54.104Z,18.70
2022-10-02T03:19:47.611Z,18.27
2022-10-02T03:22:43.766Z,19.27
2022-10-02T03:25:34.625Z,17.10
2022-10-02T03:28:53.967Z,23.97
2022-10-02T03:31:36.243Z,17.83
2022-10-02T03:34:24.785Z,14.40
2022-10-02T03:37:11.443Z,17.07
2022-10-02T03:39:59.408Z,19.23
2022-10-02T03:42:46.007Z,15.80
2022-10-02T03:45:50.457Z,18.87
2022-10-02T03:48:37.987Z,24.77
2022-10-02T03:51:24.645Z,19.87
2022-10-02T03:54:17.951Z,18.10
2022-10-02T03:57:06.544Z,22.17
2022-10-02T03:59:58.945Z,24.30
2022-10-02T04:02:51.764Z,20.27
2022-10-02T04:05:42.311Z,21.87
2022-10-02T04:08:34.194Z,19.27
2022-10-02T04:11:27.136Z,17.17
2022-10-02T04:14:19.655Z,24.30
2022-10-02T04:17:11.532Z,27.20
2022-10-02T04:20:04.594Z,20.23
2022-10-02T04:22:57.707Z,21.97
2022-10-02T04:25:48.671Z,19.63
2022-10-02T04:28:40.654Z,17.43
2022-10-02T04:31:28.543Z,22.10
2022-10-02T04:34:15.608Z,20.17
2022-10-02T04:37:23.680Z,25.30
2022-10-02T04:40:27.825Z,17.27
2022-10-02T04:43:24.954Z,22.90
2022-10-02T04:46:24.229Z,20.53
2022-10-02T04:49:31.350Z,26.63
2022-10-02T04:52:31.511Z,23.17
2022-10-02T04:55:39.458Z,20.57
2022-10-02T04:58:37.770Z,20.47
2022-10-02T05:01:32.810Z,15.93
2022-10-02T05:04:47.619Z,19.93
2022-10-02T05:08:12.876Z,15.07
2022-10-02T05:11:09.928Z,17.57
2022-10-02T05:14:18.809Z,22.53
2022-10-02T05:17:23.661Z,19.10
2022-10-02T05:20:24.908Z,21.90
2022-10-02T05:23:24.282Z,21.90
2022-10-02T05:26:47.265Z,18.03
2022-10-02T05:29:53.376Z,22.03
2022-10-02T05:33:32.290Z,19.13
2022-10-02T05:36:47.381Z,19.07
2022-10-02T05:39:40.444Z,16.93
2022-10-02T05:42:33.877Z,16.93
2022-10-02T05:45:26.300Z,21.00
2022-10-02T05:48:18.287Z,14.33
2022-10-02T05:51:09.424Z,15.73
2022-10-02T05:54:00.730Z,21.33
2022-10-02T05:56:55.751Z,16.77
2022-10-02T05:59:48.822Z,16.47
2022-10-02T06:02:43.415Z,13.03
2022-10-02T06:05:38.531Z,20.50
2022-10-02T06:08:35.845Z,18.57
2022-10-02T06:11:28.949Z,13.27
2022-10-02T06:14:26.519Z,14.67
2022-10-02T06:17:18.591Z,15.17
2022-10-02T06:20:15.715Z,14.10
2022-10-02T06:23:07.564Z,13.73
2022-10-02T06:25:57.199Z,17.37
2022-10-02T06:28:50.067Z,15.87
2022-10-02T06:31:45.219Z,12.53
2022-10-02T06:34:32.097Z,12.20
2022-10-02T06:37:35.304Z,22.73
2022-10-02T06:40:46.912Z,15.23
2022-10-02T06:44:06.155Z,18.37
2022-10-02T06:47:06.597Z,15.47
2022-10-02T06:50:19.337Z,17.53
2022-10-02T06:53:18.772Z,14.27
2022-10-02T06:56:16.349Z,14.17
2022-10-02T06:59:15.307Z,14.00
2022-10-02T07:02:10.484Z,11.47
2022-10-02T07:05:16.833Z,13.77
2022-10-02T07:08:10.272Z,15.10
2022-10-02T07:11:02.035Z,14.57
2022-10-02T07:14:04.936Z,20.50
2022-10-02T07:17:22.092Z,19.07
2022-10-02T07:20:33.460Z,15.53
2022-10-02T07:23:37.662Z,13.50
2022-10-02T07:26:40.644Z,12.57
2022-10-02T07:29:40.103Z,13.53
2022-10-02T07:32:47.789Z,15.40
2022-10-02T07:35:40.848Z,16.33
2022-10-02T07:39:07.129Z,13.20
2022-10-02T07:42:15.240Z,14.60
2022-10-02T07:45:30.101Z,14.13
2022-10-02T07:48:33.953Z,15.13
2022-10-02T07:51:49.983Z,21.53
2022-10-02T07:54:56.469Z,14.33
2022-10-02T07:57:52.402Z,14.53
2022-10-02T08:00:43.592Z,12.63
2022-10-02T08:03:39.315Z,14.77
2022-10-02T08:06:26.928Z,15.03
2022-10-02T08:09:17.333Z,14.63
2022-10-02T08:12:10.715Z,10.87
2022-10-02T08:14:59.827Z,11.37
2022-10-02T08:17:50.169Z,10.30
2022-10-02T08:20:41.774Z,18.17
2022-10-02T08:23:31.396Z,10.43
2022-10-02T08:26:23.215Z,10.20
2022-10-02T08:29:16.062Z,14.33
2022-10-02T08:32:03.308Z,12.77
2022-10-02T08:34:50.224Z,8.03
2022-10-02T08:37:45.435Z,11.03
2022-10-02T08:41:11.705Z,11.20
2022-10-02T08:44:36.112Z,8.63
2022-10-02T08:48:15.494Z,14.30
2022-10-02T08:51:44.544Z,17.07
2022-10-02T08:55:01.592Z,10.37
2022-10-02T08:58:11.175Z,9.33
2022-10-02T09:01:09.436Z,14.63
2022-10-02T09:04:41.559Z,11.80
2022-10-02T09:07:58.682Z,13.60
2022-10-02T09:11:08.515Z,9.10
2022-10-02T09:14:16.421Z,11.37
2022-10-02T09:17:48.065Z,7.67
2022-10-02T09:20:44.341Z,13.13
2022-10-02T09:24:18.629Z,8.20
2022-10-02T09:27:46.982Z,10.50
2022-10-02T09:31:02.755Z,7.30
2022-10-02T09:34:27.359Z,10.77
2022-10-02T09:37:44.116Z,6.27
2022-10-02T09:40:59.244Z,8.80
2022-10-02T09:44:21.272Z,8.13
2022-10-02T09:47:35.579Z,6.00
2022-10-02T09:50:55.899Z,6.87
2022-10-02T09:54:21.717Z,8.17
2022-10-02T09:57:35.862Z,7.37
2022-10-02T10:00:49.643Z,5.13
2022-10-02T10:04:01.917Z,8.60
2022-10-02T10:07:25.150Z,7.93
2022-10-02T10:10:26.942Z,10.20
2022-10-02T10:13:34.555Z,12.23
2022-10-02T10:17:09.034Z,5.37
2022-10-02T10:20:17.333Z,8.03
2022-10-02T10:23:36.589Z,10.43
2022-10-02T10:27:07.987Z,8.17
2022-10-02T10:30:19.954Z,9.23
2022-10-02T10:33:35.742Z,7.63
2022-10-02T10:37:02.307Z,6.47
2022-10-02T10:40:15.698Z,8.27
2022-10-02T10:43:33.231Z,6.07
2022-10-02T10:46:49.621Z,8.70
2022-10-02T10:50:14.073Z,9.40
2022-10-02T10:53:26.501Z,8.57
2022-10-02T10:56:36.914Z,10.87
2022-10-02T11:00:12.133Z,18.07
2022-10-02T11:03:27.811Z,8.10
2022-10-02T11:06:32.088Z,9.03
2022-10-02T11:09:55.405Z,6.57
2022-10-02T11:13:16.123Z,10.83
2022-10-02T11:16:44.676Z,12.43
2022-10-02T11:19:47.711Z,7.33
2022-10-02T11:22:55.169Z,6.77
2022-10-02T11:26:00.760Z,9.73
2022-10-02T11:29:15.270Z,8.23
2022-10-02T11:32:28.709Z,11.57
2022-10-02T11:35:23.511Z,7.20
2022-10-02T11:38:39.835Z,7.47
2022-10-02T11:42:00.099Z,3.50
2022-10-02T11:45:21.227Z,6.27
2022-10-02T11:48:33.445Z,5.97
2022-10-02T11:51:39.957Z,3.90
2022-10-02T11:54:44.901Z,8.23
2022-10-02T11:57:45.784Z,7.53
2022-10-02T12:01:11.248Z,5.60
2022-10-02T12:04:11.820Z,9.67
2022-10-02T12:07:25.577Z,9.23
2022-10-02T12:10:33.299Z,9.60
2022-10-02T12:14:05.480Z,4.90
2022-10-02T12:17:04.574Z,4.90
2022-10-02T12:20:22.532Z,5.50
2022-10-02T12:23:42.580Z,4.33
2022-10-02T12:27:00.856Z,6.13
2022-10-02T12:30:00.810Z,1.40
2022-10-02T12:33:08.652Z,2.50
2022-10-02T12:36:11.177Z,5.20
2022-10-02T12:39:17.748Z,3.13
2022-10-02T12:42:52.550Z,3.20
2022-10-02T12:46:15.146Z,3.00
2022-10-02T12:49:14.310Z,3.50
2022-10-02T12:52:24.070Z,3.03
2022-10-02T12:55:51.068Z,3.97
2022-10-02T12:58:50.277Z,3.07
2022-10-02T13:02:12.219Z,4.93
2022-10-02T13:05:35.813Z,5.47
2022-10-02T13:08:41.551Z,4.43
2022-10-02T13:11:40.246Z,5.53
2022-10-02T13:14:47.328Z,3.20
2022-10-02T13:17:46.222Z,5.00
2022-10-02T13:20:40.598Z,5.93
2022-10-02T13:23:38.730Z,4.93
2022-10-02T13:26:36.227Z,3.43
2022-10-02T13:29:35.635Z,2.90
2022-10-02T13:32:50.103Z,4.03
2022-10-02T13:36:09.034Z,4.00
2022-10-02T13:39:18.325Z,3.90
2022-10-02T13:42:18.727Z,5.13
2022-10-02T13:45:14.304Z,4.60
2022-10-02T13:48:12.303Z,6.10
2022-10-02T13:51:02.686Z,5.87
2022-10-02T13:54:18.011Z,3.63
2022-10-02T13:57:12.724Z,5.33
2022-10-02T14:00:10.740Z,5.40
2022-10-02T14:03:13.595Z,5.83
2022-10-02T14:06:07.030Z,6.10
2022-10-02T14:09:10.721Z,7.07
2022-10-02T14:12:20.895Z,7.50
2022-10-02T14:15:40.089Z,4.33
2022-10-02T14:19:04.532Z,5.30
2022-10-02T14:22:05.434Z,6.13
2022-10-02T14:25:05.469Z,8.50
2022-10-02T14:28:05.170Z,5.50
2022-10-02T14:31:12.167Z,4.80
2022-10-02T14:34:32.033Z,8.53
2022-10-02T14:37:56.383Z,7.23
2022-10-02T14:40:52.399Z,8.70
2022-10-02T14:43:59.475Z,8.47
2022-10-02T14:47:01.992Z,7.20
2022-10-02T14:50:01.268Z,7.03
2022-10-02T14:53:07.612Z,4.73
2022-10-02T14:56:18.968Z,5.70
2022-10-02T14:59:18.665Z,5.07
2022-10-02T15:02:22.976Z,6.97
2022-10-02T15:05:27.127Z,6.60
2022-10-02T15:08:17.120Z,5.80
2022-10-02T15:11:06.336Z,4.37
2022-10-02T15:13:59.063Z,4.27
2022-10-02T15:17:07.754Z,4.47
2022-10-02T15:20:00.832Z,8.53
2022-10-02T15:22:57.677Z,7.00
2022-10-02T15:26:11.310Z,9.40
2022-10-02T15:29:07.984Z,7.90
2022-10-02T15:32:23.867Z,7.60
2022-10-02T15:35:23.309Z,13.00
2022-10-02T15:38:37.257Z,6.17
2022-10-02T15:41:40.039Z,5.50
2022-10-02T15:44:51.699Z,6.97
2022-10-02T15:47:51.827Z,6.87
2022-10-02T15:50:49.682Z,4.77
2022-10-02T15:53:55.585Z,7.83
2022-10-02T15:57:11.625Z,6.87
2022-10-02T16:00:15.941Z,10.57
2022-10-02T16:03:16.090Z,5.70
2022-10-02T16:06:13.820Z,8.03
2022-10-02T16:09:18.363Z,5.77
2022-10-02T16:12:24.655Z,4.73
2022-10-02T16:15:22.935Z,5.80
2022-10-02T16:18:30.796Z,8.50
2022-10-02T16:21:34.244Z,8.83
2022-10-02T16:24:45.176Z,4.47
2022-10-02T16:27:50.218Z,8.53
2022-10-02T16:30:57.181Z,6.60
2022-10-02T16:33:59.354Z,5.10
2022-10-02T16:36:52.761Z,10.87
2022-10-02T16:39:53.244Z,9.97
2022-10-02T16:42:52.874Z,5.67
2022-10-02T16:46:00.330Z,6.43
2022-10-02T16:48:53.945Z,6.03
2022-10-02T16:51:53.152Z,6.70
2022-10-02T16:54:46.794Z,8.20
2022-10-02T16:58:04.035Z,7.00
2022-10-02T17:00:56.586Z,12.87
2022-10-02T17:03:47.417Z,6.90
2022-10-02T17:06:40.842Z,5.13
2022-10-02T17:09:35.074Z,8.13
2022-10-02T17:12:28.787Z,8.17
2022-10-02T17:15:21.984Z,5.83
2022-10-02T17:18:18.359Z,7.07
2022-10-02T17:21:14.512Z,10.33
2022-10-02T17:24:31.928Z,6.70
2022-10-02T17:27:29.707Z,5.60
2022-10-02T17:30:21.150Z,7.57
2022-10-02T17:33:15.843Z,7.00
2022-10-02T17:36:13.191Z,9.70
2022-10-02T17:39:20.414Z,6.07
2022-10-02T17:42:15.681Z,3.87
2022-10-02T17:45:16.556Z,4.93
2022-10-02T17:48:28.829Z,4.10
2022-10-02T17:51:51.751Z,7.87
2022-10-02T17:55:05.299Z,6.13
2022-10-02T17:58:02.072Z,9.30
2022-10-02T18:01:05.780Z,9.67
2022-10-02T18:04:08.478Z,8.97
2022-10-02T18:07:07.121Z,12.17
2022-10-02T18:10:04.415Z,8.93
2022-10-02T18:13:10.815Z,10.80
2022-10-02T18:16:22.648Z,16.33
2022-10-02T18:19:30.823Z,5.00
2022-10-02T18:22:46.507Z,9.10
2022-10-02T18:25:50.920Z,9.07
2022-10-02T18:28:56.573Z,7.97
2022-10-02T18:32:11.667Z,5.83
2022-10-02T18:35:14.960Z,12.23
2022-10-02T18:38:13.704Z,7.27
2022-10-02T18:41:20.688Z,5.73
2022-10-02T18:44:18.004Z,9.20
2022-10-02T18:47:14.819Z,10.73
2022-10-02T18:50:27.608Z,9.10
2022-10-02T18:53:30.645Z,8.73
2022-10-02T18:56:25.188Z,6.40
2022-10-02T18:59:21.174Z,10.73
2022-10-02T19:02:23.244Z,6.67
2022-10-02T19:05:31.044Z,9.37
2022-10-02T19:08:24.168Z,10.57
2022-10-02T19:11:18.445Z,14.50
2022-10-02T19:14:14.451Z,13.30
2022-10-02T19:17:02.626Z,8.50
2022-10-02T19:19:50.346Z,8.40
2022-10-02T19:22:38.518Z,9.73
2022-10-02T19:25:28.447Z,8.50
2022-10-02T19:28:19.983Z,7.33
2022-10-02T19:31:11.357Z,6.27
2022-10-02T19:34:02.260Z,11.77
2022-10-02T19:36:54.406Z,12.00
2022-10-02T19:39:47.424Z,8.17
2022-10-02T19:42:49.500Z,10.47
2022-10-02T19:45:42.055Z,10.90
2022-10-02T19:48:30.818Z,8.83
2022-10-02T19:51:20.129Z,12.57
2022-10-02T19:54:13.701Z,7.57
2022-10-02T19:57:04.655Z,6.47
2022-10-02T19:59:53.484Z,5.77
2022-10-02T20:02:43.941Z,8.60
2022-10-02T20:05:32.621Z,11.00
2022-10-02T20:08:23.428Z,10.17
2022-10-02T20:11:18.568Z,8.73
2022-10-02T20:14:10.125Z,8.30
2022-10-02T20:17:12.784Z,12.27
2022-10-02T20:20:03.592Z,9.07
2022-10-02T20:22:54.990Z,8.83
2022-10-02T20:25:46.236Z,10.50
2022-10-02T20:28:42.252Z,12.17
2022-10-02T20:31:39.745Z,9.67
2022-10-02T20:34:33.761Z,10.70
2022-10-02T20:37:25.732Z,10.80
2022-10-02T20:40:16.617Z,8.37
2022-10-02T20:43:07.366Z,11.07
2022-10-02T20:46:11.248Z,8.20
2022-10-02T20:49:40.250Z,12.37
2022-10-02T20:52:57.371Z,9.10
2022-10-02T20:55:52.775Z,11.47
2022-10-02T20:59:09.851Z,16.03
2022-10-02T21:02:12.832Z,7.30
2022-10-02T21:05:18.492Z,13.83
2022-10-02T21:08:23.759Z,12.53
2022-10-02T21:11:19.520Z,9.10
2022-10-02T21:14:42.191Z,15.37
2022-10-02T21:17:58.133Z,9.93
2022-10-02T21:21:32.581Z,9.23
2022-10-02T21:24:56.164Z,9.47
2022-10-02T21:28:18.164Z,13.93
2022-10-02T21:31:16.997Z,7.83
2022-10-02T21:34:19.303Z,10.73
2022-10-02T21:37:18.354Z,14.40
2022-10-02T21:40:42.281Z,9.87
2022-10-02T21:44:16.477Z,9.97
2022-10-02T21:47:40.995Z,9.73
2022-10-02T21:51:10.538Z,9.90
2022-10-02T21:54:51.347Z,9.97
2022-10-02T21:58:23.237Z,9.90
2022-10-02T22:01:51.756Z,8.93
2022-10-02T22:05:22.592Z,7.30
2022-10-02T22:08:21.184Z,17.40
2022-10-02T22:11:19.235Z,10.87
2022-10-02T22:14:11.596Z,10.40
2022-10-02T22:17:06.673Z,10.30
2022-10-02T22:20:08.976Z,13.23
2022-10-02T22:23:11.458Z,11.53
2022-10-02T22:26:13.560Z,8.13
2022-10-02T22:29:08.516Z,9.10
2022-10-02T22:32:29.458Z,5.90
2022-10-02T22:35:27.783Z,7.50
2022-10-02T22:38:21.603Z,8.17
2022-10-02T22:41:19.029Z,5.57
2022-10-02T22:44:13.327Z,7.83
2022-10-02T22:47:08.194Z,11.57
2022-10-02T22:50:00.237Z,5.13
2022-10-02T22:52:49.812Z,9.13
2022-10-02T22:55:46.510Z,8.30
2022-10-02T22:58:39.891Z,11.27
2022-10-02T23:01:34.298Z,11.57
2022-10-02T23:04:29.675Z,5.40
2022-10-02T23:07:18.865Z,8.07
2022-10-02T23:10:18.592Z,12.07
2022-10-02T23:13:12.569Z,11.03
2022-10-02T23:16:06.409Z,9.17
2022-10-02T23:18:58.369Z,13.17
2022-10-02T23:21:47.970Z,9.37
2022-10-02T23:24:38.975Z,15.23
2022-10-02T23:27:32.617Z,12.10
2022-10-02T23:30:20.976Z,7.10
2022-10-02T23:33:23.095Z,10.23
2022-10-02T23:36:24.203Z,10.83
2022-10-02T23:39:16.828Z,11.13
2022-10-02T23:42:07.485Z,11.43
2022-10-02T23:45:02.101Z,7.90
2022-10-02T23:47:59.903Z,10.87
2022-10-02T23:50:57.200Z,11.67
2022-10-02T23:53:58.544Z,9.77
2022-10-02T23:57:17.755Z,9.70
